createdAt,value
2018-12-20T00:01:12.240Z,8.00
2018-12-20T00:03:39.799Z,8.00
2018-12-20T00:06:07.402Z,8.00
2018-12-20T00:08:34.990Z,8.00
2018-12-20T00:11:03.008Z,8.10
2018-12-20T00:13:30.443Z,8.20
2018-12-20T00:15:58.058Z,8.10
2018-12-20T00:18:25.983Z,8.10
2018-12-20T00:20:53.672Z,8.10
2018-12-20T00:23:21.125Z,8.10
2018-12-20T00:25:49.091Z,8.10
2018-12-20T00:28:16.624Z,8.10
2018-12-20T00:30:44.200Z,8.00
2018-12-20T00:33:11.794Z,8.10
2018-12-20T00:35:39.518Z,8.10
2018-12-20T00:38:07.971Z,8.10
2018-12-20T00:40:35.955Z,8.10
2018-12-20T00:43:04.814Z,8.20
2018-12-20T00:45:32.415Z,8.20
2018-12-20T00:48:00.725Z,8.20
2018-12-20T00:50:28.292Z,8.30
2018-12-20T00:52:55.894Z,8.20
2018-12-20T00:55:23.598Z,8.30
2018-12-20T00:57:51.090Z,8.40
2018-12-20T01:00:18.634Z,8.30
2018-12-20T01:02:47.026Z,8.30
2018-12-20T01:05:15.362Z,8.30
2018-12-20T01:07:42.937Z,8.20
2018-12-20T01:10:10.911Z,8.20
2018-12-20T01:12:38.531Z,8.20
2018-12-20T01:15:06.076Z,8.30
2018-12-20T01:17:39.184Z,8.30
2018-12-20T01:20:06.769Z,8.30
2018-12-20T01:22:34.348Z,8.30
2018-12-20T01:25:01.996Z,8.20
2018-12-20T01:27:29.532Z,8.20
2018-12-20T01:29:57.279Z,8.30
2018-12-20T01:32:24.768Z,8.30
2018-12-20T01:34:52.364Z,8.30
2018-12-20T01:37:20.248Z,8.20
2018-12-20T01:39:47.680Z,8.20
2018-12-20T01:42:15.276Z,8.20
2018-12-20T01:44:43.083Z,8.10
2018-12-20T01:47:11.369Z,8.00
2018-12-20T01:49:39.075Z,8.00
2018-12-20T01:52:07.058Z,8.00
2018-12-20T01:54:34.610Z,8.00
2018-12-20T01:57:02.879Z,8.20
2018-12-20T01:59:30.589Z,8.20
2018-12-20T02:01:58.041Z,8.10
2018-12-20T02:04:25.678Z,8.20
2018-12-20T02:06:53.289Z,8.10
2018-12-20T02:09:21.000Z,8.10
2018-12-20T02:11:48.489Z,8.20
2018-12-20T02:14:16.814Z,8.20
2018-12-20T02:16:44.649Z,8.20
2018-12-20T02:19:12.197Z,8.20
2018-12-20T02:21:40.302Z,8.10
2018-12-20T02:24:07.890Z,8.10
2018-12-20T02:26:35.462Z,8.10
2018-12-20T02:29:03.860Z,8.00
2018-12-20T02:31:32.403Z,8.00
2018-12-20T02:33:59.766Z,8.00
2018-12-20T02:36:27.918Z,8.00
2018-12-20T02:38:55.464Z,7.90
2018-12-20T02:41:23.671Z,8.00
2018-12-20T02:43:51.253Z,8.00
2018-12-20T02:46:18.833Z,8.00
2018-12-20T02:48:46.455Z,8.00
2018-12-20T02:51:14.015Z,8.00
2018-12-20T02:53:41.884Z,8.00
2018-12-20T02:56:09.459Z,7.90
2018-12-20T02:58:37.084Z,8.00
2018-12-20T03:01:04.704Z,8.10
2018-12-20T03:03:32.252Z,8.10
2018-12-20T03:06:00.144Z,8.10
2018-12-20T03:08:27.749Z,8.00
2018-12-20T03:10:55.316Z,8.00
2018-12-20T03:13:22.991Z,8.00
2018-12-20T03:15:51.228Z,8.00
2018-12-20T03:18:18.862Z,8.00
2018-12-20T03:20:46.445Z,8.00
2018-12-20T03:23:14.404Z,8.00
2018-12-20T03:25:41.755Z,7.90
2018-12-20T03:28:09.228Z,7.90
2018-12-20T03:30:36.827Z,7.90
2018-12-20T03:33:04.787Z,7.90
2018-12-20T03:35:32.015Z,7.90
2018-12-20T03:38:00.534Z,7.90
2018-12-20T03:40:28.713Z,7.90
2018-12-20T03:42:56.283Z,7.80
2018-12-20T03:45:28.611Z,7.80
2018-12-20T03:47:51.835Z,7.80
2018-12-20T03:50:19.764Z,7.90
2018-12-20T03:52:47.684Z,8.00
2018-12-20T03:55:15.456Z,7.90
2018-12-20T03:57:42.977Z,8.00
2018-12-20T04:00:10.953Z,7.90
2018-12-20T04:02:38.279Z,7.90
2018-12-20T04:05:05.865Z,7.90
2018-12-20T04:07:33.506Z,7.90
2018-12-20T04:10:01.084Z,7.90
2018-12-20T04:12:28.633Z,7.90
2018-12-20T04:14:56.660Z,7.90
2018-12-20T04:17:24.239Z,7.80
2018-12-20T04:19:51.816Z,7.90
2018-12-20T04:22:19.439Z,8.00
2018-12-20T04:24:47.808Z,8.00
2018-12-20T04:27:15.532Z,8.00
2018-12-20T04:29:43.006Z,8.00
2018-12-20T04:32:10.878Z,8.00
2018-12-20T04:34:38.144Z,8.00
2018-12-20T04:37:05.765Z,8.00
2018-12-20T04:39:33.355Z,7.90
2018-12-20T04:42:01.105Z,7.90
2018-12-20T04:44:29.337Z,8.00
2018-12-20T04:46:59.587Z,8.00
2018-12-20T04:49:25.379Z,8.00
2018-12-20T04:51:53.305Z,8.00
2018-12-20T04:54:20.858Z,8.10
2018-12-20T04:56:48.349Z,8.10
2018-12-20T04:59:17.306Z,8.00
2018-12-20T05:01:44.779Z,8.00
2018-12-20T05:04:12.383Z,8.00
2018-12-20T05:06:41.061Z,8.10
2018-12-20T05:09:08.626Z,8.10
2018-12-20T05:11:36.157Z,8.10
2018-12-20T05:14:03.703Z,8.00
2018-12-20T05:16:31.283Z,8.00
2018-12-20T05:18:59.264Z,7.90
2018-12-20T05:21:27.059Z,7.90
2018-12-20T05:23:55.173Z,7.80
2018-12-20T05:26:23.071Z,7.80
2018-12-20T05:28:50.890Z,7.90
2018-12-20T05:31:19.024Z,7.80
2018-12-20T05:33:46.608Z,7.80
2018-12-20T05:36:14.177Z,7.80
2018-12-20T05:38:42.153Z,7.80
2018-12-20T05:41:09.744Z,7.80
2018-12-20T05:43:38.044Z,7.80
2018-12-20T05:46:05.659Z,7.70
2018-12-20T05:48:33.240Z,7.80
2018-12-20T05:51:00.846Z,7.80
2018-12-20T05:53:30.251Z,7.80
2018-12-20T05:55:56.772Z,7.70
2018-12-20T05:58:24.381Z,7.70
2018-12-20T06:00:51.961Z,7.70
2018-12-20T06:03:20.229Z,7.80
2018-12-20T06:05:47.715Z,7.80
2018-12-20T06:08:15.294Z,7.70
2018-12-20T06:10:42.939Z,7.70
2018-12-20T06:13:10.468Z,7.90
2018-12-20T06:15:38.164Z,7.90
2018-12-20T06:18:06.678Z,7.90
2018-12-20T06:20:34.033Z,7.90
2018-12-20T06:23:02.403Z,7.80
2018-12-20T06:25:29.994Z,7.80
2018-12-20T06:27:58.361Z,7.80
2018-12-20T06:30:26.704Z,7.80
2018-12-20T06:32:54.280Z,7.80
2018-12-20T06:35:21.885Z,7.80
2018-12-20T06:37:49.491Z,7.80
2018-12-20T06:40:17.470Z,7.90
2018-12-20T06:42:45.065Z,7.90
2018-12-20T06:45:12.642Z,8.00
2018-12-20T06:47:40.247Z,8.10
2018-12-20T06:50:07.821Z,8.20
2018-12-20T06:52:35.448Z,8.10
2018-12-20T06:55:03.032Z,8.10
2018-12-20T06:57:30.613Z,8.20
2018-12-20T06:59:58.220Z,8.20
2018-12-20T07:02:25.796Z,8.30
2018-12-20T07:04:54.461Z,8.20
2018-12-20T07:07:22.036Z,8.20
2018-12-20T07:09:49.630Z,8.10
2018-12-20T07:12:17.235Z,8.00
2018-12-20T07:14:44.808Z,8.00
2018-12-20T07:17:12.929Z,8.10
2018-12-20T07:19:40.505Z,8.10
2018-12-20T07:22:08.094Z,8.00
2018-12-20T07:24:36.459Z,8.00
2018-12-20T07:27:04.055Z,7.90
2018-12-20T07:29:31.975Z,7.90
2018-12-20T07:31:59.552Z,7.90
2018-12-20T07:34:27.908Z,7.80
2018-12-20T07:36:55.511Z,7.80
2018-12-20T07:39:23.101Z,7.80
2018-12-20T07:41:50.715Z,7.90
2018-12-20T07:44:18.307Z,7.90
2018-12-20T07:46:45.882Z,7.90
2018-12-20T07:49:13.492Z,7.90
2018-12-20T07:51:41.068Z,7.80
2018-12-20T07:54:09.735Z,7.80
2018-12-20T07:56:37.323Z,7.80
2018-12-20T07:59:05.671Z,7.80
2018-12-20T08:01:33.274Z,7.80
2018-12-20T08:04:00.853Z,7.80
2018-12-20T08:06:28.968Z,7.80
2018-12-20T08:08:56.582Z,7.80
2018-12-20T08:11:24.161Z,7.80
2018-12-20T08:13:51.763Z,7.90
2018-12-20T08:16:19.346Z,8.00
2018-12-20T08:18:48.026Z,8.00
2018-12-20T08:21:15.607Z,7.90
2018-12-20T08:23:43.191Z,7.90
2018-12-20T08:26:10.783Z,7.90
2018-12-20T08:28:38.381Z,7.90
2018-12-20T08:31:06.759Z,7.90
2018-12-20T08:33:35.093Z,7.90
2018-12-20T08:36:02.666Z,7.90
2018-12-20T08:38:30.315Z,7.90
2018-12-20T08:40:57.887Z,7.90
2018-12-20T08:43:25.757Z,8.10
2018-12-20T08:45:53.330Z,8.10
2018-12-20T08:48:21.165Z,8.10
2018-12-20T08:50:48.763Z,8.20
2018-12-20T08:53:16.338Z,8.10
2018-12-20T08:55:45.509Z,8.00
2018-12-20T08:58:13.103Z,8.00
2018-12-20T09:00:41.446Z,8.30
2018-12-20T09:03:09.045Z,8.20
2018-12-20T09:05:36.622Z,8.30
2018-12-20T09:08:05.669Z,8.20
2018-12-20T09:10:33.261Z,8.10
2018-12-20T09:13:09.324Z,8.00
2018-12-20T09:15:29.191Z,8.00
2018-12-20T09:17:56.789Z,8.00
2018-12-20T09:20:32.578Z,8.00
2018-12-20T09:22:52.010Z,8.00
2018-12-20T09:25:19.577Z,7.90
2018-12-20T09:27:47.172Z,7.90
2018-12-20T09:30:14.740Z,7.90
2018-12-20T09:32:43.341Z,7.90
2018-12-20T09:35:10.921Z,8.00
2018-12-20T09:37:38.494Z,8.20
2018-12-20T09:40:07.043Z,8.30
2018-12-20T09:42:34.881Z,8.30
2018-12-20T09:45:02.463Z,8.30
2018-12-20T09:47:48.683Z,8.30
2018-12-20T09:50:16.251Z,8.30
2018-12-20T09:52:44.992Z,8.20
2018-12-20T09:55:12.721Z,8.20
2018-12-20T09:57:40.211Z,8.20
2018-12-20T10:00:07.786Z,8.20
2018-12-20T10:02:36.406Z,8.30
2018-12-20T10:05:04.742Z,8.30
2018-12-20T10:07:32.322Z,8.30
2018-12-20T10:10:00.219Z,8.30
2018-12-20T10:12:29.905Z,8.30
2018-12-20T10:14:57.476Z,8.30
2018-12-20T10:17:25.129Z,8.30
2018-12-20T10:19:52.707Z,8.30
2018-12-20T10:22:20.281Z,8.30
2018-12-20T10:24:48.663Z,8.30
2018-12-20T10:27:17.000Z,8.30
2018-12-20T10:29:44.577Z,8.20
2018-12-20T10:32:12.227Z,8.30
2018-12-20T10:34:39.792Z,8.30
2018-12-20T10:37:07.361Z,8.30
2018-12-20T10:39:35.017Z,8.30
2018-12-20T10:42:02.589Z,8.30
2018-12-20T10:44:30.161Z,8.30
2018-12-20T10:46:57.787Z,8.30
2018-12-20T10:49:25.362Z,8.50
2018-12-20T10:51:53.954Z,8.50
2018-12-20T10:54:21.516Z,8.60
2018-12-20T10:56:49.361Z,8.70
2018-12-20T10:59:16.977Z,8.70
2018-12-20T11:01:47.856Z,8.80
2018-12-20T11:04:19.240Z,8.80
2018-12-20T11:07:05.189Z,8.80
2018-12-20T11:09:51.262Z,8.90
2018-12-20T11:12:27.836Z,8.90
2018-12-20T11:14:55.442Z,8.80
2018-12-20T11:17:23.317Z,8.80
2018-12-20T11:19:50.917Z,8.70
2018-12-20T11:22:18.455Z,8.70
2018-12-20T11:24:46.933Z,8.60
2018-12-20T11:27:14.510Z,8.60
2018-12-20T11:29:42.081Z,8.70
2018-12-20T11:32:10.873Z,8.80
2018-12-20T11:34:38.408Z,8.80
2018-12-20T11:37:05.980Z,8.70
2018-12-20T11:39:33.859Z,8.70
2018-12-20T11:42:02.200Z,8.80
2018-12-20T11:44:29.774Z,8.80
2018-12-20T11:46:57.377Z,8.80
2018-12-20T11:49:24.960Z,8.80
2018-12-20T11:51:52.837Z,8.70
2018-12-20T11:54:21.247Z,8.70
2018-12-20T11:56:48.712Z,8.60
2018-12-20T11:59:16.421Z,8.60
2018-12-20T12:01:43.990Z,8.60
2018-12-20T12:04:11.578Z,8.60
2018-12-20T12:06:39.236Z,8.60
2018-12-20T12:09:06.817Z,8.50
2018-12-20T12:11:34.386Z,8.50
2018-12-20T12:14:02.458Z,8.50
2018-12-20T12:16:30.039Z,8.50
2018-12-20T12:18:58.376Z,8.70
2018-12-20T12:21:25.994Z,8.60
2018-12-20T12:23:54.346Z,8.60
2018-12-20T12:26:21.908Z,8.60
2018-12-20T12:28:49.542Z,8.60
2018-12-20T12:31:17.122Z,8.60
2018-12-20T12:33:44.696Z,8.70
2018-12-20T12:36:12.650Z,8.80
2018-12-20T12:38:40.258Z,8.80
2018-12-20T12:41:07.811Z,8.80
2018-12-20T12:43:36.938Z,8.70
2018-12-20T12:46:04.504Z,8.70
2018-12-20T12:48:32.067Z,8.70
2018-12-20T12:51:00.070Z,8.80
2018-12-20T12:53:27.625Z,8.70
2018-12-20T12:55:55.194Z,8.80
2018-12-20T12:58:23.575Z,8.70
2018-12-20T13:00:51.148Z,8.70
2018-12-20T13:03:18.738Z,8.60
2018-12-20T13:05:47.195Z,8.70
2018-12-20T13:08:15.533Z,8.60
2018-12-20T13:10:44.220Z,8.60
2018-12-20T13:13:14.686Z,8.60
2018-12-20T13:15:42.272Z,8.50
2018-12-20T13:18:13.687Z,8.60
2018-12-20T13:20:37.857Z,8.50
2018-12-20T13:23:06.760Z,8.50
2018-12-20T13:25:34.381Z,8.50
2018-12-20T13:28:02.294Z,8.50
2018-12-20T13:30:29.872Z,8.60
2018-12-20T13:32:58.212Z,8.60
2018-12-20T13:35:26.559Z,8.60
2018-12-20T13:37:54.149Z,8.60
2018-12-20T13:40:21.747Z,8.60
2018-12-20T13:42:49.375Z,8.60
2018-12-20T13:45:16.935Z,8.50
2018-12-20T13:47:44.506Z,8.50
2018-12-20T13:50:12.132Z,8.50
2018-12-20T13:52:39.708Z,8.50
2018-12-20T13:55:07.286Z,8.50
2018-12-20T13:57:35.403Z,8.50
2018-12-20T14:00:03.745Z,8.40
2018-12-20T14:02:31.342Z,8.40
2018-12-20T14:04:59.302Z,8.40
2018-12-20T14:07:26.869Z,8.40
2018-12-20T14:09:55.214Z,8.50
2018-12-20T14:12:22.865Z,8.50
2018-12-20T14:14:50.444Z,8.60
2018-12-20T14:17:18.017Z,8.50
2018-12-20T14:19:45.618Z,8.50
2018-12-20T14:22:13.981Z,8.80
2018-12-20T14:24:42.150Z,8.80
2018-12-20T14:27:09.727Z,8.80
2018-12-20T14:29:38.072Z,8.70
2018-12-20T14:32:06.793Z,8.70
2018-12-20T14:34:33.273Z,8.60
2018-12-20T14:37:00.841Z,8.70
2018-12-20T14:39:28.508Z,8.70
2018-12-20T14:41:56.686Z,8.60
2018-12-20T14:44:24.254Z,8.60
2018-12-20T14:46:52.260Z,8.50
2018-12-20T14:49:20.594Z,8.40
2018-12-20T14:51:48.173Z,8.40
2018-12-20T14:54:15.765Z,8.40
2018-12-20T14:56:43.332Z,8.40
2018-12-20T14:59:10.989Z,8.30
2018-12-20T15:01:38.528Z,8.30
2018-12-20T15:04:06.098Z,8.30
2018-12-20T15:06:33.701Z,8.30
2018-12-20T15:09:01.275Z,8.30
2018-12-20T15:11:28.897Z,8.30
2018-12-20T15:13:58.260Z,8.30
2018-12-20T15:16:25.777Z,8.30
2018-12-20T15:18:53.419Z,8.30
2018-12-20T15:21:21.795Z,8.30
2018-12-20T15:23:49.338Z,8.20
2018-12-20T15:26:16.978Z,8.20
2018-12-20T15:28:44.556Z,8.20
2018-12-20T15:31:12.132Z,8.30
2018-12-20T15:33:39.758Z,8.30
2018-12-20T15:36:07.334Z,8.30
2018-12-20T15:38:35.829Z,8.30
2018-12-20T15:41:03.435Z,8.30
2018-12-20T15:43:31.333Z,8.40
2018-12-20T15:45:58.954Z,8.30
2018-12-20T15:48:27.291Z,8.30
2018-12-20T15:50:54.865Z,8.20
2018-12-20T15:53:22.756Z,8.20
2018-12-20T15:55:54.102Z,8.30
2018-12-20T15:58:21.721Z,8.30
2018-12-20T16:00:49.343Z,8.30
2018-12-20T16:03:16.913Z,8.30
2018-12-20T16:05:44.486Z,8.30
2018-12-20T16:08:12.105Z,8.20
2018-12-20T16:10:40.449Z,8.20
2018-12-20T16:13:08.029Z,8.20
2018-12-20T16:15:35.687Z,8.20
2018-12-20T16:18:03.253Z,8.20
2018-12-20T16:20:30.832Z,8.20
2018-12-20T16:22:59.303Z,8.20
2018-12-20T16:25:26.903Z,8.10
2018-12-20T16:27:54.496Z,8.10
2018-12-20T16:30:22.148Z,8.10
2018-12-20T16:32:49.719Z,8.10
2018-12-20T16:35:17.292Z,8.00
2018-12-20T16:37:44.888Z,8.10
2018-12-20T16:40:13.226Z,8.00
2018-12-20T16:42:41.211Z,8.00
2018-12-20T16:45:08.782Z,8.00
2018-12-20T16:47:36.368Z,8.00
2018-12-20T16:50:05.606Z,8.30
2018-12-20T16:52:33.592Z,8.30
2018-12-20T16:55:01.173Z,8.30
2018-12-20T16:57:30.098Z,8.30
2018-12-20T16:59:58.437Z,8.30
2018-12-20T17:02:26.027Z,8.30
2018-12-20T17:04:53.631Z,8.20
2018-12-20T17:07:21.246Z,8.20
2018-12-20T17:09:48.866Z,8.20
2018-12-20T17:12:16.437Z,8.20
2018-12-20T17:14:44.010Z,8.20
2018-12-20T17:17:15.789Z,8.20
2018-12-20T17:19:43.827Z,8.20
2018-12-20T17:22:11.408Z,8.30
2018-12-20T17:24:42.650Z,8.30
2018-12-20T17:27:10.228Z,8.30
2018-12-20T17:29:37.796Z,8.30
2018-12-20T17:32:05.402Z,8.30
2018-12-20T17:34:32.975Z,8.40
2018-12-20T17:37:00.594Z,8.40
2018-12-20T17:39:28.375Z,8.40
2018-12-20T17:41:56.696Z,8.40
2018-12-20T17:44:24.355Z,8.40
2018-12-20T17:46:51.931Z,8.30
2018-12-20T17:49:19.499Z,8.40
2018-12-20T17:51:47.093Z,8.30
2018-12-20T17:54:14.667Z,8.40
2018-12-20T17:56:42.316Z,8.30
2018-12-20T17:59:10.664Z,8.30
2018-12-20T18:01:40.198Z,8.30
2018-12-20T18:04:06.915Z,8.30
2018-12-20T18:06:34.499Z,8.30
2018-12-20T18:09:02.835Z,8.40
2018-12-20T18:11:30.466Z,8.30
2018-12-20T18:13:58.039Z,8.40
2018-12-20T18:16:25.615Z,8.30
2018-12-20T18:18:53.271Z,8.30
2018-12-20T18:21:21.296Z,8.30
2018-12-20T18:23:49.630Z,8.40
2018-12-20T18:26:17.335Z,8.40
2018-12-20T18:28:44.870Z,8.40
2018-12-20T18:31:12.448Z,8.40
2018-12-20T18:33:40.152Z,8.40
2018-12-20T18:36:07.729Z,8.40
2018-12-20T18:38:35.320Z,8.50
2018-12-20T18:41:02.919Z,8.60
2018-12-20T18:43:31.268Z,8.80
2018-12-20T18:45:58.924Z,8.80
2018-12-20T18:48:26.499Z,8.70
2018-12-20T18:50:54.082Z,8.80
2018-12-20T18:53:22.844Z,8.80
2018-12-20T18:55:50.427Z,8.80
2018-12-20T18:58:17.987Z,8.80
2018-12-20T19:00:46.859Z,8.60
2018-12-20T19:03:14.438Z,8.60
2018-12-20T19:05:42.013Z,8.60
2018-12-20T19:08:10.814Z,8.70
2018-12-20T19:10:38.386Z,8.70
2018-12-20T19:13:05.957Z,8.60
2018-12-20T19:15:34.145Z,8.60
2018-12-20T19:18:01.734Z,8.60
2018-12-20T19:20:29.850Z,8.50
2018-12-20T19:22:57.423Z,8.50
2018-12-20T19:25:25.000Z,8.50
2018-12-20T19:27:52.652Z,8.50
2018-12-20T19:30:20.221Z,8.50
2018-12-20T19:32:47.798Z,8.50
2018-12-20T19:35:17.103Z,8.50
2018-12-20T19:37:44.680Z,8.50
2018-12-20T19:40:12.252Z,8.50
2018-12-20T19:42:40.629Z,8.50
2018-12-20T19:45:11.003Z,8.50
2018-12-20T19:47:38.563Z,8.50
2018-12-20T19:50:06.200Z,8.50
2018-12-20T19:52:33.777Z,8.50
2018-12-20T19:55:01.406Z,8.50
2018-12-20T19:57:28.980Z,8.50
2018-12-20T19:59:56.559Z,8.50
2018-12-20T20:02:24.179Z,8.50
2018-12-20T20:04:51.755Z,8.50
2018-12-20T20:07:19.328Z,8.50
2018-12-20T20:09:47.744Z,8.60
2018-12-20T20:12:15.322Z,8.60
2018-12-20T20:14:42.893Z,8.60
2018-12-20T20:17:10.552Z,8.60
2018-12-20T20:19:38.135Z,8.60
2018-12-20T20:22:05.710Z,8.60
2018-12-20T20:24:33.335Z,8.70
2018-12-20T20:27:00.909Z,8.60
2018-12-20T20:29:28.476Z,8.60
2018-12-20T20:31:57.155Z,8.60
2018-12-20T20:34:24.739Z,8.50
2018-12-20T20:36:52.298Z,8.50
2018-12-20T20:39:20.541Z,8.50
2018-12-20T20:41:48.121Z,8.50
2018-12-20T20:44:15.744Z,8.50
2018-12-20T20:46:43.356Z,8.50
2018-12-20T20:49:10.919Z,8.50
2018-12-20T20:51:41.285Z,8.50
2018-12-20T20:54:08.859Z,8.60
2018-12-20T20:56:36.433Z,8.60
2018-12-20T20:59:04.324Z,8.60
2018-12-20T21:01:31.899Z,8.60
2018-12-20T21:04:03.481Z,8.60
2018-12-20T21:06:28.377Z,8.50
2018-12-20T21:08:56.796Z,8.60
2018-12-20T21:11:24.379Z,8.60
2018-12-20T21:13:52.359Z,8.60
2018-12-20T21:16:19.934Z,8.60
2018-12-20T21:18:47.518Z,8.60
2018-12-20T21:21:15.119Z,8.80
2018-12-20T21:23:42.690Z,8.80
2018-12-20T21:26:10.773Z,8.70
2018-12-20T21:28:38.384Z,8.60
2018-12-20T21:31:06.066Z,8.60
2018-12-20T21:33:33.722Z,8.50
2018-12-20T21:36:01.300Z,8.50
2018-12-20T21:38:29.289Z,8.50
2018-12-20T21:40:56.860Z,8.40
2018-12-20T21:43:24.441Z,8.40
2018-12-20T21:45:53.618Z,8.40
2018-12-20T21:48:21.209Z,8.40
2018-12-20T21:50:48.789Z,8.40
2018-12-20T21:53:16.392Z,8.40
2018-12-20T21:55:43.977Z,8.40
2018-12-20T21:58:11.929Z,8.40
2018-12-20T22:00:39.505Z,8.40
2018-12-20T22:03:07.080Z,8.40
2018-12-20T22:05:36.158Z,8.40
2018-12-20T22:08:03.724Z,8.40
2018-12-20T22:10:31.303Z,8.40
2018-12-20T22:12:59.971Z,8.40
2018-12-20T22:15:27.543Z,8.40
2018-12-20T22:17:55.119Z,8.40
2018-12-20T22:20:24.698Z,8.50
2018-12-20T22:22:52.277Z,8.50
2018-12-20T22:25:20.619Z,8.60
2018-12-20T22:27:48.243Z,8.60
2018-12-20T22:30:15.808Z,8.50
2018-12-20T22:32:43.473Z,8.60
2018-12-20T22:35:11.043Z,8.50
2018-12-20T22:37:38.612Z,8.50
2018-12-20T22:40:06.207Z,8.50
2018-12-20T22:42:33.782Z,8.50
2018-12-20T22:45:02.567Z,8.50
2018-12-20T22:47:30.148Z,8.60
2018-12-20T22:49:58.509Z,8.60
2018-12-20T22:52:26.104Z,8.60
2018-12-20T22:54:53.679Z,8.60
2018-12-20T22:57:21.341Z,8.60
2018-12-20T22:59:48.910Z,8.60
2018-12-20T23:02:18.133Z,8.60
2018-12-20T23:04:44.113Z,8.60
2018-12-20T23:07:11.684Z,8.60
2018-12-20T23:09:39.268Z,8.60
2018-12-20T23:12:06.863Z,8.60
2018-12-20T23:14:34.434Z,8.60
2018-12-20T23:17:02.382Z,8.60
2018-12-20T23:19:29.968Z,8.70
2018-12-20T23:21:57.555Z,8.60
2018-12-20T23:24:25.147Z,8.70
2018-12-20T23:26:52.719Z,8.60
2018-12-20T23:29:20.292Z,8.60
2018-12-20T23:31:47.894Z,8.60
2018-12-20T23:34:16.232Z,8.60
2018-12-20T23:36:43.804Z,8.60
2018-12-20T23:39:11.396Z,8.60
2018-12-20T23:41:39.731Z,8.50
2018-12-20T23:44:07.303Z,8.50
2018-12-20T23:46:34.919Z,8.50
2018-12-20T23:49:02.491Z,8.50
2018-12-20T23:51:30.064Z,8.70
2018-12-20T23:53:57.700Z,8.70
2018-12-20T23:56:25.275Z,8.60
2018-12-20T23:58:52.843Z,8.60
